Terminal Aerodrome Forecast
Issued by NWS La Crosse, WI

Home | Current Version | Previous Version | Text Only | Print | Product List | Glossary On
Versions: 1 2 3 4 5 6 7 8 9 10 11 12 13 14 15 16 17 18 19 20 21 22 23 24 25 26 27 28 29 30 31 32 33
000
FTUS43 KARX 240520
TAFLSE
TAF
KLSE 240520Z 2406/2506 03016G24KT 4SM -RASN VCTS BKN012 OVC020CB
     FM240800 04016G24KT 2SM -SNRA OVC006
     FM241500 03020G30KT 1 1/2SM -SN OVC008
     FM250000 35014G22KT 1 1/2SM -SN OVC010=

USA.gov is the U.S. government's official web portal to all federal, state and local government web resources and services.